createdAt,value
2019-05-13T00:01:07.422Z,101919.37
2019-05-13T00:04:10.910Z,101922.53
2019-05-13T00:07:14.387Z,101926.93
2019-05-13T00:10:17.903Z,101928.77
2019-05-13T00:13:23.562Z,101931.48
2019-05-13T00:16:26.733Z,101926.63
2019-05-13T00:19:30.260Z,101925.73
2019-05-13T00:22:34.017Z,101935.91
2019-05-13T00:25:37.560Z,101940.42
2019-05-13T00:28:41.153Z,101940.81
2019-05-13T00:31:45.680Z,101938.29
2019-05-13T00:34:49.112Z,101937.90
2019-05-13T00:37:54.286Z,101941.33
2019-05-13T00:40:57.838Z,101941.87
2019-05-13T00:44:03.675Z,101942.27
2019-05-13T00:47:06.668Z,101944.08
2019-05-13T00:50:10.163Z,101945.84
2019-05-13T00:53:13.708Z,101944.14
2019-05-13T00:56:18.077Z,101948.11
2019-05-13T00:59:24.092Z,101948.95
2019-05-13T01:02:27.115Z,101950.77
2019-05-13T01:05:30.544Z,101955.19
2019-05-13T01:08:34.069Z,101953.05
2019-05-13T01:11:37.546Z,101961.06
2019-05-13T01:14:43.111Z,101957.08
2019-05-13T01:17:46.185Z,101966.36
2019-05-13T01:20:49.641Z,101960.22
2019-05-13T01:23:54.365Z,101969.94
2019-05-13T01:26:58.927Z,101967.30
2019-05-13T01:30:04.211Z,101969.55
2019-05-13T01:33:07.673Z,101976.18
2019-05-13T01:36:13.420Z,101973.14
2019-05-13T01:39:16.625Z,101976.18
2019-05-13T01:42:20.135Z,101976.23
2019-05-13T01:45:24.126Z,101984.19
2019-05-13T01:48:27.635Z,101984.19
2019-05-13T01:51:33.487Z,101987.83
2019-05-13T01:54:36.586Z,101991.32
2019-05-13T01:57:40.112Z,101998.43
2019-05-13T02:00:44.365Z,102000.27
2019-05-13T02:03:51.197Z,102004.23
2019-05-13T02:06:54.678Z,102006.44
2019-05-13T02:10:00.281Z,102005.17
2019-05-13T02:13:04.107Z,102004.69
2019-05-13T02:16:07.552Z,102007.82
2019-05-13T02:19:11.142Z,102011.80
2019-05-13T02:22:14.828Z,102012.75
2019-05-13T02:25:19.382Z,102015.77
2019-05-13T02:28:24.647Z,102010.08
2019-05-13T02:31:44.951Z,102012.27
2019-05-13T02:34:34.590Z,102016.30
2019-05-13T02:37:38.091Z,102012.81
2019-05-13T02:40:43.165Z,102008.41
2019-05-13T02:43:46.842Z,102014.53
2019-05-13T02:46:52.475Z,102015.46
2019-05-13T02:49:55.769Z,102008.78
2019-05-13T02:53:02.147Z,102008.41
2019-05-13T02:56:04.430Z,102013.31
2019-05-13T02:59:07.921Z,102012.92
2019-05-13T03:02:12.288Z,102023.52
2019-05-13T03:05:16.144Z,102026.68
2019-05-13T03:08:35.297Z,102009.45
2019-05-13T03:11:25.007Z,102028.43
2019-05-13T03:14:28.487Z,102031.98
2019-05-13T03:17:37.860Z,102038.60
2019-05-13T03:20:43.127Z,102037.76
2019-05-13T03:23:46.682Z,102036.88
2019-05-13T03:26:52.963Z,102039.14
2019-05-13T03:29:55.417Z,102045.77
2019-05-13T03:33:04.086Z,102048.41
2019-05-13T03:36:07.181Z,102044.02
2019-05-13T03:39:14.704Z,102052.89
2019-05-13T03:42:16.388Z,102051.96
2019-05-13T03:45:22.130Z,102056.47
2019-05-13T03:48:25.544Z,102059.52
2019-05-13T03:51:28.949Z,102063.44
2019-05-13T03:54:32.988Z,102064.42
2019-05-13T03:57:36.563Z,102065.27
2019-05-13T04:00:42.710Z,102075.41
2019-05-13T04:03:45.296Z,102074.20
2019-05-13T04:06:53.044Z,102068.51
2019-05-13T04:09:56.870Z,102068.11
2019-05-13T04:13:03.475Z,102073.41
2019-05-13T04:16:05.543Z,102076.06
2019-05-13T04:19:12.097Z,102079.16
2019-05-13T04:22:14.394Z,102077.78
2019-05-13T04:25:17.891Z,102079.61
2019-05-13T04:28:22.226Z,102092.86
2019-05-13T04:31:25.815Z,102093.78
2019-05-13T04:34:29.412Z,102096.55
2019-05-13T04:37:33.251Z,102095.61
2019-05-13T04:40:37.858Z,102093.78
2019-05-13T04:43:43.691Z,102098.27
2019-05-13T04:46:46.692Z,102106.20
2019-05-13T04:49:53.436Z,102103.16
2019-05-13T04:52:55.455Z,102106.20
2019-05-13T04:55:59.039Z,102099.19
2019-05-13T04:59:03.573Z,102104.09
2019-05-13T05:02:39.929Z,102112.83
2019-05-13T05:06:03.202Z,102119.50
2019-05-13T05:13:42.865Z,102112.09
2019-05-13T05:17:12.458Z,102118.77
2019-05-13T05:20:33.097Z,102124.13
2019-05-13T05:23:57.868Z,102121.03
2019-05-13T05:27:42.528Z,102124.57
2019-05-13T05:31:33.075Z,102130.35
2019-05-13T05:35:12.567Z,102133.05
2019-05-13T05:38:31.667Z,102130.80
2019-05-13T05:41:34.368Z,102136.09
2019-05-13T05:44:37.870Z,102133.45
2019-05-13T05:47:41.919Z,102138.23
2019-05-13T05:50:45.897Z,102137.42
2019-05-13T05:53:51.606Z,102136.92
2019-05-13T05:56:54.729Z,102145.26
2019-05-13T06:00:02.259Z,102140.02
2019-05-13T06:03:05.625Z,102140.95
2019-05-13T06:06:11.737Z,102133.84
2019-05-13T06:09:15.499Z,102138.23
2019-05-13T06:12:21.203Z,102132.13
2019-05-13T06:15:25.149Z,102127.22
2019-05-13T06:18:29.678Z,102130.74
2019-05-13T06:21:34.326Z,102132.94
2019-05-13T06:24:38.202Z,102136.92
2019-05-13T06:27:42.209Z,102136.92
2019-05-13T06:30:52.149Z,102135.70
2019-05-13T06:33:55.793Z,102138.30
2019-05-13T06:37:01.606Z,102142.32
2019-05-13T06:40:05.039Z,102147.22
2019-05-13T06:43:08.535Z,102144.58
2019-05-13T06:46:12.389Z,102148.46
2019-05-13T06:49:17.045Z,102150.72
2019-05-13T06:52:21.495Z,102151.59
2019-05-13T06:55:24.990Z,102151.59
2019-05-13T06:58:28.523Z,102156.89
2019-05-13T07:01:32.423Z,102156.14
2019-05-13T07:04:38.164Z,102161.23
2019-05-13T07:07:42.685Z,102162.45
2019-05-13T07:10:46.087Z,102159.37
2019-05-13T07:13:51.675Z,102157.99
2019-05-13T07:16:55.449Z,102163.19
2019-05-13T07:19:58.942Z,102159.69
2019-05-13T07:23:03.463Z,102156.51
2019-05-13T07:26:06.979Z,102157.94
2019-05-13T07:29:12.751Z,102154.78
2019-05-13T07:32:15.624Z,102164.88
2019-05-13T07:35:22.440Z,102156.51
2019-05-13T07:38:24.249Z,102158.66
2019-05-13T07:41:38.716Z,102159.98
2019-05-13T07:44:32.906Z,102159.10
2019-05-13T07:47:36.383Z,102158.66
2019-05-13T07:50:53.568Z,102155.61
2019-05-13T07:53:45.243Z,102154.39
2019-05-13T07:56:48.741Z,102148.56
2019-05-13T07:59:52.559Z,102150.76
2019-05-13T08:02:57.170Z,102150.76
2019-05-13T08:06:02.016Z,102144.58
2019-05-13T08:09:08.781Z,102144.69
2019-05-13T08:12:14.470Z,102144.58
2019-05-13T08:15:17.537Z,102141.94
2019-05-13T08:18:22.174Z,102145.91
2019-05-13T08:21:25.769Z,102143.69
2019-05-13T08:24:31.315Z,102144.58
2019-05-13T08:27:35.329Z,102146.34
2019-05-13T08:30:38.734Z,102145.41
2019-05-13T08:33:42.506Z,102135.20
2019-05-13T08:36:46.151Z,102137.06
2019-05-13T08:39:52.005Z,102133.09
2019-05-13T08:42:55.289Z,102138.30
2019-05-13T08:45:58.779Z,102143.69
2019-05-13T08:49:03.799Z,102145.45
2019-05-13T08:52:07.418Z,102132.72
2019-05-13T08:55:15.584Z,102132.27
2019-05-13T08:58:16.375Z,102143.69
2019-05-13T09:01:22.519Z,102132.16
2019-05-13T09:04:25.226Z,102134.33
2019-05-13T09:07:28.706Z,102132.27
2019-05-13T09:10:32.126Z,102126.91
2019-05-13T09:13:36.282Z,102126.86
2019-05-13T09:16:41.919Z,102121.16
2019-05-13T09:19:44.960Z,102130.30
2019-05-13T09:22:48.463Z,102133.38
2019-05-13T09:25:52.396Z,102134.22
2019-05-13T09:28:55.875Z,102122.77
2019-05-13T09:31:59.312Z,102124.49
2019-05-13T09:35:03.227Z,102128.47
2019-05-13T09:38:07.652Z,102125.81
2019-05-13T09:41:12.320Z,102116.98
2019-05-13T09:44:16.003Z,102116.07
2019-05-13T09:47:21.658Z,102117.40
2019-05-13T09:50:29.313Z,102118.63
2019-05-13T09:53:32.453Z,102120.38
2019-05-13T09:56:36.414Z,102119.52
2019-05-13T09:59:42.322Z,102121.23
2019-05-13T10:02:47.900Z,102116.35
2019-05-13T10:05:51.801Z,102114.60
2019-05-13T10:08:57.568Z,102101.78
2019-05-13T10:12:03.321Z,102106.15
2019-05-13T10:15:07.233Z,102099.86
2019-05-13T10:18:12.533Z,102104.48
2019-05-13T10:21:16.114Z,102108.03
2019-05-13T10:24:21.677Z,102100.08
2019-05-13T10:27:24.917Z,102093.34
2019-05-13T10:30:28.431Z,102092.23
2019-05-13T10:33:32.367Z,102092.18
2019-05-13T10:36:35.834Z,102101.01
2019-05-13T10:39:39.327Z,102090.47
2019-05-13T10:42:43.576Z,102088.75
2019-05-13T10:45:47.173Z,102089.95
2019-05-13T10:48:52.694Z,102089.95
2019-05-13T10:51:56.049Z,102090.35
2019-05-13T10:55:02.001Z,102089.30
2019-05-13T10:58:04.774Z,102083.61
2019-05-13T11:01:08.332Z,102085.72
2019-05-13T11:04:13.573Z,102086.14
2019-05-13T11:07:16.999Z,102088.37
2019-05-13T11:10:32.612Z,102088.25
2019-05-13T11:13:52.338Z,102090.34
2019-05-13T11:16:42.637Z,102090.91
2019-05-13T11:19:46.764Z,102094.48
2019-05-13T11:22:52.135Z,102090.91
2019-05-13T11:25:55.774Z,102089.58
2019-05-13T11:28:59.307Z,102079.36
2019-05-13T11:32:03.083Z,102066.53
2019-05-13T11:35:08.547Z,102065.93
2019-05-13T11:38:13.096Z,102062.98
2019-05-13T11:41:16.649Z,102063.91
2019-05-13T11:44:23.424Z,102059.39
2019-05-13T11:47:26.878Z,102062.86
2019-05-13T11:50:30.391Z,102066.45
2019-05-13T11:53:37.608Z,102068.89
2019-05-13T11:56:48.934Z,102063.25
2019-05-13T11:59:45.380Z,102058.28
2019-05-13T12:02:51.984Z,102059.16
2019-05-13T12:05:54.197Z,102045.66
2019-05-13T12:08:57.739Z,102046.71
2019-05-13T12:12:03.192Z,102040.08
2019-05-13T12:15:26.518Z,102036.87
2019-05-13T12:18:12.847Z,102030.19
2019-05-13T12:21:16.582Z,102036.76
2019-05-13T12:24:22.930Z,102030.78
2019-05-13T12:27:27.532Z,102025.91
2019-05-13T12:30:33.814Z,102023.64
2019-05-13T12:33:36.384Z,102036.52
2019-05-13T12:36:43.154Z,102034.77
2019-05-13T12:39:45.278Z,102025.03
2019-05-13T12:42:48.809Z,102024.16
2019-05-13T12:45:53.318Z,102024.03
2019-05-13T12:48:57.192Z,102017.82
2019-05-13T12:52:04.389Z,102002.17
2019-05-13T12:55:09.282Z,102005.51
2019-05-13T12:58:12.787Z,102012.56
2019-05-13T13:01:16.627Z,102014.67
2019-05-13T13:04:23.885Z,102009.09
2019-05-13T13:07:26.349Z,102006.70
2019-05-13T13:10:33.135Z,102009.23
2019-05-13T13:13:56.664Z,102005.12
2019-05-13T13:16:43.132Z,102002.86
2019-05-13T13:19:46.706Z,102004.19
2019-05-13T13:22:51.230Z,101999.27
2019-05-13T13:25:57.155Z,101994.32
2019-05-13T13:29:00.081Z,101986.30
2019-05-13T13:32:03.569Z,101975.06
2019-05-13T13:35:07.223Z,101976.84
2019-05-13T13:38:10.814Z,101986.36
2019-05-13T13:41:22.387Z,101989.08
2019-05-13T13:44:24.072Z,101990.41
2019-05-13T13:47:24.897Z,101983.22
2019-05-13T13:50:28.487Z,101992.37
2019-05-13T13:53:33.512Z,101984.03
2019-05-13T13:56:37.129Z,101978.72
2019-05-13T14:00:14.315Z,101979.66
2019-05-13T14:02:47.030Z,101982.31
2019-05-13T14:05:53.708Z,101981.83
2019-05-13T14:08:55.633Z,101979.17
2019-05-13T14:11:59.151Z,101983.90
2019-05-13T14:15:02.684Z,101983.09
2019-05-13T14:18:06.124Z,101974.67
2019-05-13T14:21:09.561Z,101971.53
2019-05-13T14:24:13.135Z,101972.41
2019-05-13T14:27:16.670Z,101970.62
2019-05-13T14:30:21.737Z,101969.69
2019-05-13T14:33:25.397Z,101969.30
2019-05-13T14:36:29.838Z,101959.88
2019-05-13T14:39:36.096Z,101952.56
2019-05-13T14:42:38.662Z,101952.56
2019-05-13T14:45:42.145Z,101954.88
2019-05-13T14:48:45.666Z,101951.36
2019-05-13T14:51:51.782Z,101944.86
2019-05-13T14:54:54.873Z,101939.86
2019-05-13T14:58:01.583Z,101938.76
2019-05-13T15:01:15.809Z,101939.14
2019-05-13T15:04:12.278Z,101930.80
2019-05-13T15:07:15.872Z,101925.55
2019-05-13T15:10:21.925Z,101921.22
2019-05-13T15:13:25.137Z,101923.73
2019-05-13T15:16:31.740Z,101925.48
2019-05-13T15:19:34.999Z,101912.98
2019-05-13T15:22:38.499Z,101918.09
2019-05-13T15:25:42.999Z,101915.88
2019-05-13T15:28:46.519Z,101921.62
2019-05-13T15:31:51.438Z,101914.56
2019-05-13T15:34:55.013Z,101924.97
2019-05-13T15:37:58.501Z,101915.23
2019-05-13T15:41:02.268Z,101919.21
2019-05-13T15:44:05.662Z,101914.28
2019-05-13T15:47:22.388Z,101899.68
2019-05-13T15:50:15.343Z,101899.92
2019-05-13T15:53:21.249Z,101901.25
2019-05-13T15:56:26.220Z,101909.84
2019-05-13T15:59:29.720Z,101906.84
2019-05-13T16:02:33.236Z,101909.25
2019-05-13T16:05:36.728Z,101904.50
2019-05-13T16:08:43.220Z,101906.73
2019-05-13T16:11:47.216Z,101908.55
2019-05-13T16:14:50.783Z,101910.33
2019-05-13T16:17:54.232Z,101908.55
2019-05-13T16:20:57.710Z,101909.38
2019-05-13T16:24:02.610Z,101898.37
2019-05-13T16:27:06.349Z,101903.30
2019-05-13T16:30:11.852Z,101902.50
2019-05-13T16:33:15.572Z,101907.42
2019-05-13T16:36:21.964Z,101902.18
2019-05-13T16:39:24.159Z,101892.57
2019-05-13T16:42:27.665Z,101894.84
2019-05-13T16:45:31.711Z,101897.14
2019-05-13T16:48:36.239Z,101894.17
2019-05-13T16:51:39.689Z,101895.56
2019-05-13T16:54:43.197Z,101894.72
2019-05-13T16:57:48.734Z,101892.45
2019-05-13T17:00:55.995Z,101888.09
2019-05-13T17:04:01.849Z,101891.27
2019-05-13T17:07:05.822Z,101886.48
2019-05-13T17:10:12.482Z,101891.92
2019-05-13T17:13:16.300Z,101897.23
2019-05-13T17:16:21.300Z,101894.73
2019-05-13T17:19:27.851Z,101894.73
2019-05-13T17:22:31.688Z,101892.61
2019-05-13T17:25:35.297Z,101901.89
2019-05-13T17:28:41.477Z,101895.78
2019-05-13T17:31:45.269Z,101900.38
2019-05-13T17:34:51.134Z,101888.64
2019-05-13T17:37:54.060Z,101896.21
2019-05-13T17:40:57.511Z,101900.58
2019-05-13T17:44:02.566Z,101900.70
2019-05-13T17:47:13.149Z,101899.52
2019-05-13T17:50:17.743Z,101900.45
2019-05-13T17:53:21.731Z,101906.56
2019-05-13T17:56:26.174Z,101901.88
2019-05-13T17:59:31.492Z,101896.70
2019-05-13T18:02:35.855Z,101906.41
2019-05-13T18:05:39.349Z,101904.66
2019-05-13T18:08:42.844Z,101903.88
2019-05-13T18:11:46.357Z,101904.79
2019-05-13T18:14:51.675Z,101903.01
2019-05-13T18:17:55.372Z,101905.79
2019-05-13T18:20:58.809Z,101908.44
2019-05-13T18:24:02.312Z,101903.69
2019-05-13T18:27:05.735Z,101911.64
2019-05-13T18:30:11.431Z,101917.53
2019-05-13T18:33:15.156Z,101916.75
2019-05-13T18:36:18.671Z,101919.47
2019-05-13T18:39:22.194Z,101914.23
2019-05-13T18:42:26.679Z,101914.62
2019-05-13T18:45:30.188Z,101923.90
2019-05-13T18:48:33.604Z,101916.82
2019-05-13T18:51:37.078Z,101919.98
2019-05-13T18:54:42.122Z,101916.95
2019-05-13T18:57:45.870Z,101924.03
2019-05-13T19:00:49.340Z,101927.42
2019-05-13T19:03:52.843Z,101929.47
2019-05-13T19:06:57.349Z,101926.69
2019-05-13T19:10:02.541Z,101928.47
2019-05-13T19:13:07.218Z,101924.48
2019-05-13T19:16:12.816Z,101924.42
2019-05-13T19:19:19.725Z,101924.42
2019-05-13T19:22:21.616Z,101928.02
2019-05-13T19:25:25.273Z,101927.08
2019-05-13T19:28:28.738Z,101926.17
2019-05-13T19:31:32.509Z,101923.52
2019-05-13T19:34:36.912Z,101922.97
2019-05-13T19:37:42.561Z,101923.52
2019-05-13T19:40:46.323Z,101920.99
2019-05-13T19:43:50.996Z,101920.18
2019-05-13T19:46:54.734Z,101925.48
2019-05-13T19:49:58.265Z,101925.16
2019-05-13T19:53:03.704Z,101926.94
2019-05-13T19:56:07.301Z,101924.41
2019-05-13T19:59:12.410Z,101920.05
2019-05-13T20:02:16.149Z,101917.01
2019-05-13T20:05:21.132Z,101922.70
2019-05-13T20:08:24.934Z,101916.62
2019-05-13T20:11:28.412Z,101914.87
2019-05-13T20:14:31.821Z,101909.18
2019-05-13T20:17:35.236Z,101910.12
2019-05-13T20:20:38.681Z,101914.09
2019-05-13T20:23:43.910Z,101911.14
2019-05-13T20:26:52.215Z,101914.34
2019-05-13T20:29:56.873Z,101905.19
2019-05-13T20:33:02.310Z,101910.49
2019-05-13T20:36:06.971Z,101907.03
2019-05-13T20:39:11.561Z,101896.98
2019-05-13T20:42:16.197Z,101897.48
2019-05-13T20:45:22.235Z,101899.23
2019-05-13T20:48:25.067Z,101900.47
2019-05-13T20:51:28.546Z,101901.08
2019-05-13T20:54:33.071Z,101908.09
2019-05-13T20:57:36.480Z,101908.64
2019-05-13T21:00:42.189Z,101914.72
2019-05-13T21:03:45.813Z,101908.22
2019-05-13T21:06:51.646Z,101907.38
2019-05-13T21:09:55.263Z,101907.83
2019-05-13T21:12:58.797Z,101913.52
2019-05-13T21:16:02.561Z,101910.09
2019-05-13T21:19:06.190Z,101915.39
2019-05-13T21:22:11.797Z,101918.88
2019-05-13T21:25:15.416Z,101913.68
2019-05-13T21:28:18.836Z,101915.39
2019-05-13T21:31:22.441Z,101925.19
2019-05-13T21:34:26.963Z,101926.13
2019-05-13T21:37:30.464Z,101920.81
2019-05-13T21:40:34.992Z,101926.18
2019-05-13T21:43:38.627Z,101918.16
2019-05-13T21:46:42.136Z,101916.45
2019-05-13T21:49:45.817Z,101913.38
2019-05-13T21:52:51.469Z,101911.66
2019-05-13T21:55:54.733Z,101904.97
2019-05-13T21:59:01.422Z,101906.36
2019-05-13T22:02:05.717Z,101911.72
2019-05-13T22:05:11.477Z,101913.05
2019-05-13T22:08:14.692Z,101907.30
2019-05-13T22:11:18.256Z,101902.90
2019-05-13T22:14:21.697Z,101889.20
2019-05-13T22:17:25.198Z,101896.27
2019-05-13T22:20:28.608Z,101889.32
2019-05-13T22:23:33.348Z,101892.84
2019-05-13T22:26:36.828Z,101892.91
2019-05-13T22:29:41.440Z,101893.23
2019-05-13T22:32:46.185Z,101890.31
2019-05-13T22:35:52.119Z,101885.02
2019-05-13T22:38:54.821Z,101885.02
2019-05-13T22:42:01.077Z,101885.95
2019-05-13T22:45:06.887Z,101884.08
2019-05-13T22:48:12.129Z,101887.79
2019-05-13T22:51:15.550Z,101884.63
2019-05-13T22:54:21.077Z,101884.20
2019-05-13T22:57:24.112Z,101890.44
2019-05-13T23:00:27.727Z,101883.81
2019-05-13T23:03:32.354Z,101887.85
2019-05-13T23:06:36.134Z,101884.81
2019-05-13T23:09:41.615Z,101888.40
2019-05-13T23:12:44.792Z,101890.17
2019-05-13T23:15:48.307Z,101883.48
2019-05-13T23:18:51.806Z,101878.64
2019-05-13T23:21:55.342Z,101875.21
2019-05-13T23:24:58.798Z,101873.88
2019-05-13T23:28:02.304Z,101884.48
2019-05-13T23:31:05.806Z,101884.06
2019-05-13T23:34:12.049Z,101881.83
2019-05-13T23:37:15.576Z,101881.02
2019-05-13T23:40:19.997Z,101878.91
2019-05-13T23:43:23.426Z,101874.39
2019-05-13T23:46:26.895Z,101873.62
2019-05-13T23:49:31.780Z,101874.94
2019-05-13T23:52:35.467Z,101871.38
2019-05-13T23:55:41.283Z,101866.53
2019-05-13T23:58:44.287Z,101862.56
